Time;durP1;ratioP1;P1;durP2;ratioP2;P2;SDS_P1;SDS_P2;PMS_P1;PMS_P2;Temp;Humidity;BMP_temperature;BMP_pressure;BME280_temperature;BME280_humidity;BME280_pressure;Samples;Min_cycle;Max_cycle;Signal;HPM_P1;HPM_P2
2022/11/14 00:00:57;;;;;;;23.53;15.33;;;;;;;4.54;100.00;100504.16;5040826;28;20049;-71
2022/11/14 00:03:24;;;;;;;19.98;14.45;;;;;;;4.46;100.00;100498.19;5043810;28;20518;-72
2022/11/14 00:05:50;;;;;;;25.67;15.55;;;;;;;4.41;100.00;100502.66;5045134;28;20055;-71
2022/11/14 00:08:20;;;;;;;22.15;14.25;;;;;;;4.35;100.00;100503.66;5035357;28;20084;-69
2022/11/14 00:10:48;;;;;;;25.50;15.63;;;;;;;4.32;100.00;100498.47;5040699;28;20179;-70
2022/11/14 00:13:16;;;;;;;27.45;15.50;;;;;;;4.31;100.00;100504.59;5046719;28;20069;-72
2022/11/14 00:15:43;;;;;;;22.23;14.68;;;;;;;4.39;100.00;100499.22;5047398;28;20049;-71
2022/11/14 00:18:10;;;;;;;23.55;14.95;;;;;;;4.28;100.00;100474.97;5044653;28;20550;-71
2022/11/14 00:20:36;;;;;;;22.73;14.38;;;;;;;4.42;100.00;100493.91;5049734;28;20064;-71
2022/11/14 00:23:03;;;;;;;20.90;14.00;;;;;;;4.26;100.00;100461.88;5041731;28;20485;-71
2022/11/14 00:25:31;;;;;;;20.45;14.52;;;;;;;4.39;100.00;100483.50;5049811;28;20143;-72
2022/11/14 00:27:58;;;;;;;23.25;14.40;;;;;;;4.40;100.00;100495.72;5050817;28;20063;-72
2022/11/14 00:30:26;;;;;;;23.63;15.55;;;;;;;4.19;100.00;100466.41;5038249;28;20050;-71
2022/11/14 00:32:52;;;;;;;18.55;14.18;;;;;;;4.29;100.00;100480.19;5043381;28;20049;-71
2022/11/14 00:35:19;;;;;;;25.83;15.13;;;;;;;4.18;100.00;100466.44;5044606;28;20052;-71
2022/11/14 00:37:45;;;;;;;23.75;14.85;;;;;;;4.28;100.00;100488.94;5043246;28;20861;-71
2022/11/14 00:40:13;;;;;;;23.02;15.60;;;;;;;4.28;100.00;100490.69;5044833;28;20123;-70
2022/11/14 00:42:41;;;;;;;21.90;14.40;;;;;;;4.18;100.00;100469.91;5041876;28;20052;-71
2022/11/14 00:45:08;;;;;;;21.17;15.15;;;;;;;4.11;100.00;100462.19;5040862;28;20048;-70
2022/11/14 00:47:34;;;;;;;23.13;14.90;;;;;;;4.23;100.00;100480.31;5042825;28;20148;-71
2022/11/14 00:50:01;;;;;;;19.80;14.70;;;;;;;4.23;100.00;100482.94;5046090;28;20040;-70
2022/11/14 00:52:28;;;;;;;22.95;15.68;;;;;;;4.19;100.00;100478.66;5031466;28;20049;-71
2022/11/14 00:54:54;;;;;;;23.95;14.15;;;;;;;4.06;100.00;100464.06;5044218;28;20036;-71
2022/11/14 00:57:21;;;;;;;19.33;14.27;;;;;;;4.23;100.00;100488.19;5046495;28;20071;-70
2022/11/14 00:59:47;;;;;;;22.65;14.05;;;;;;;4.29;100.00;100492.41;5038407;28;20041;-69
2022/11/14 01:02:14;;;;;;;19.27;13.32;;;;;;;4.21;100.00;100480.34;5031785;28;20067;-73
2022/11/14 01:04:40;;;;;;;20.15;12.85;;;;;;;4.20;100.00;100480.38;5043702;28;20053;-72
2022/11/14 01:07:07;;;;;;;21.15;13.57;;;;;;;4.12;100.00;100477.03;5051601;28;20049;-71
2022/11/14 01:09:33;;;;;;;22.13;13.77;;;;;;;4.09;100.00;100464.00;5046345;28;20045;-70
2022/11/14 01:12:00;;;;;;;25.05;14.52;;;;;;;4.09;100.00;100470.06;5028932;28;21886;-71
2022/11/14 01:14:27;;;;;;;19.77;13.23;;;;;;;4.00;100.00;100470.25;5039398;28;20055;-68
2022/11/14 01:16:53;;;;;;;20.20;12.95;;;;;;;3.82;100.00;100441.78;5049432;28;20045;-68
2022/11/14 01:19:20;;;;;;;20.67;13.77;;;;;;;3.96;100.00;100465.09;5048546;28;20041;-70
2022/11/14 01:21:46;;;;;;;21.80;12.57;;;;;;;3.96;100.00;100460.72;5039122;28;20144;-71
2022/11/14 01:24:13;;;;;;;19.63;12.82;;;;;;;4.02;100.00;100454.53;5049751;28;20045;-71
2022/11/14 01:26:39;;;;;;;17.92;12.30;;;;;;;3.88;100.00;100421.59;5046452;28;20445;-68
2022/11/14 01:29:06;;;;;;;17.77;12.50;;;;;;;4.15;100.00;100445.50;5042282;28;20037;-69
2022/11/14 01:31:32;;;;;;;17.67;12.82;;;;;;;4.21;100.00;100450.66;5032904;28;20073;-70
2022/11/14 01:33:59;;;;;;;19.17;13.05;;;;;;;4.22;100.00;100436.66;5041049;28;20041;-73
2022/11/14 01:36:26;;;;;;;16.48;11.55;;;;;;;4.17;100.00;100425.38;5045155;28;20087;-72
2022/11/14 01:38:53;;;;;;;19.92;12.25;;;;;;;4.20;100.00;100443.69;5024609;28;20053;-70
2022/11/14 01:41:20;;;;;;;17.63;11.93;;;;;;;4.18;100.00;100430.59;5032035;28;20052;-71
2022/11/14 01:43:47;;;;;;;17.50;12.18;;;;;;;3.86;100.00;100389.31;5040901;28;20140;-68
2022/11/14 01:46:29;;;;;;;21.33;13.45;;;;;;;4.09;100.00;100424.69;5041134;28;20108;-70
2022/11/14 01:49:14;;;;;;;20.63;13.00;;;;;;;4.08;100.00;100429.06;5049890;28;20044;-70
2022/11/14 01:51:48;;;;;;;20.50;13.90;;;;;;;4.10;100.00;100431.63;5040502;28;20049;-68
2022/11/14 01:54:21;;;;;;;18.92;13.30;;;;;;;4.10;100.00;100419.41;5040526;28;20052;-71
2022/11/14 01:56:58;;;;;;;18.67;12.38;;;;;;;4.10;100.00;100416.78;5031480;28;20511;-70
2022/11/14 01:59:33;;;;;;;20.80;12.57;;;;;;;3.95;100.00;100379.53;5048282;28;20049;-71
2022/11/14 02:02:06;;;;;;;19.42;12.63;;;;;;;4.09;100.00;100408.97;5029044;28;20136;-68
2022/11/14 02:04:38;;;;;;;18.90;12.52;;;;;;;4.03;100.00;100409.94;5042406;28;20041;-69
2022/11/14 02:07:06;;;;;;;17.52;11.95;;;;;;;4.05;100.00;100410.78;5046080;28;20049;-68
2022/11/14 02:09:39;;;;;;;18.33;11.45;;;;;;;3.98;100.00;100400.44;5045867;28;20079;-69
2022/11/14 02:12:08;;;;;;;16.75;11.55;;;;;;;4.01;100.00;100406.50;5030747;28;20061;-70
2022/11/14 02:14:36;;;;;;;18.25;11.38;;;;;;;4.00;100.00;100404.75;5040861;28;20045;-70
2022/11/14 02:17:03;;;;;;;17.20;11.85;;;;;;;3.96;100.00;100403.09;5045216;28;20401;-69
2022/11/14 02:19:53;;;;;;;17.23;12.52;;;;;;;3.90;100.00;100391.88;5042699;28;20494;-69
2022/11/14 02:22:20;;;;;;;16.35;11.50;;;;;;;3.69;100.00;100361.72;5032552;28;20049;-71
2022/11/14 02:24:46;;;;;;;18.23;12.13;;;;;;;3.73;100.00;100382.59;5049775;28;20578;-70
2022/11/14 02:27:14;;;;;;;16.90;11.48;;;;;;;3.73;100.00;100385.22;5046568;28;20037;-69
2022/11/14 02:29:41;;;;;;;18.00;12.52;;;;;;;3.69;100.00;100387.91;5042375;28;20490;-70
2022/11/14 02:32:07;;;;;;;17.48;12.15;;;;;;;3.64;100.00;100380.13;5037295;28;20045;-70
2022/11/14 02:34:37;;;;;;;17.15;11.32;;;;;;;3.69;100.00;100382.69;5051132;28;20413;-70
2022/11/14 02:37:04;;;;;;;18.17;12.52;;;;;;;3.52;100.00;100348.97;5052946;28;20099;-71
2022/11/14 02:39:31;;;;;;;20.88;12.80;;;;;;;3.67;100.00;100379.22;5039350;28;20049;-70
2022/11/14 02:41:57;;;;;;;21.65;12.88;;;;;;;3.62;100.00;100381.09;5040761;28;20049;-72
2022/11/14 02:44:24;;;;;;;18.25;12.02;;;;;;;3.56;100.00;100374.19;5039538;28;20149;-72
2022/11/14 02:46:51;;;;;;;19.05;12.13;;;;;;;3.55;100.00;100374.22;5045580;28;20049;-71
2022/11/14 02:49:17;;;;;;;17.40;12.77;;;;;;;3.53;100.00;100374.25;5047923;28;20050;-70
2022/11/14 02:51:44;;;;;;;18.35;12.27;;;;;;;3.53;100.00;100372.50;5034830;28;20049;-71
2022/11/14 02:54:10;;;;;;;18.30;12.15;;;;;;;3.53;100.00;100363.78;5056261;28;20055;-71
2022/11/14 02:56:37;;;;;;;17.65;11.85;;;;;;;3.48;100.00;100357.75;5052749;28;20093;-72
2022/11/14 02:59:03;;;;;;;16.52;12.35;;;;;;;3.43;100.00;100363.09;5051646;28;20052;-69
2022/11/14 03:01:30;;;;;;;19.65;13.02;;;;;;;3.40;100.00;100363.16;5040190;28;20045;-71
2022/11/14 03:03:57;;;;;;;18.90;12.43;;;;;;;3.18;100.00;100333.88;5049335;28;21280;-71
2022/11/14 03:06:23;;;;;;;18.25;12.43;;;;;;;3.28;100.00;100349.44;5055738;28;20063;-69
2022/11/14 03:08:50;;;;;;;16.85;12.40;;;;;;;3.34;100.00;100359.75;5042836;28;20128;-71
2022/11/14 03:11:17;;;;;;;19.70;11.90;;;;;;;3.31;100.00;100352.81;5044241;28;20439;-70
2022/11/14 03:13:44;;;;;;;16.38;11.80;;;;;;;3.28;100.00;100359.91;5042281;28;20545;-71
2022/11/14 03:16:12;;;;;;;18.50;12.05;;;;;;;3.23;100.00;100346.88;5047781;28;20308;-70
2022/11/14 03:18:39;;;;;;;19.42;11.93;;;;;;;3.18;100.00;100349.56;5045127;28;20048;-72
2022/11/14 03:21:12;;;;;;;19.45;12.63;;;;;;;3.16;100.00;100353.97;5054623;28;20053;-69
2022/11/14 03:23:39;;;;;;;17.17;11.88;;;;;;;2.95;100.00;100306.41;5038653;28;20037;-72
2022/11/14 03:26:08;;;;;;;17.20;11.68;;;;;;;3.09;100.00;100335.81;5044412;28;20087;-69
2022/11/14 03:28:35;;;;;;;16.05;11.18;;;;;;;3.11;100.00;100337.50;5048520;28;20049;-70
2022/11/14 03:31:02;;;;;;;15.60;10.80;;;;;;;3.14;100.00;100342.69;5045413;28;20057;-69
2022/11/14 03:33:28;;;;;;;15.98;10.77;;;;;;;3.12;100.00;100336.63;5037288;28;20045;-70
2022/11/14 03:35:55;;;;;;;18.10;11.85;;;;;;;3.04;100.00;100340.25;5056296;28;20331;-71
2022/11/14 03:38:22;;;;;;;15.82;11.57;;;;;;;2.83;100.00;100316.16;5039468;28;20132;-70
2022/11/14 03:40:50;;;;;;;16.10;11.35;;;;;;;2.90;100.00;100340.47;5061238;28;20080;-70
2022/11/14 03:43:18;;;;;;;19.90;11.60;;;;;;;2.80;100.00;100328.44;5034577;28;20052;-70
2022/11/14 03:45:45;;;;;;;16.33;11.13;;;;;;;2.80;100.00;100334.56;5049397;28;20506;-69
2022/11/14 03:48:12;;;;;;;16.05;11.32;;;;;;;2.67;100.00;100324.31;5043064;28;20043;-70
2022/11/14 03:50:40;;;;;;;15.20;11.48;;;;;;;2.67;100.00;100334.78;5049562;28;20068;-69
2022/11/14 03:53:07;;;;;;;14.30;11.00;;;;;;;2.75;100.00;100332.88;5039535;28;20058;-71
2022/11/14 03:55:34;;;;;;;15.60;11.80;;;;;;;2.83;100.00;100338.88;5048141;28;20129;-69
2022/11/14 03:58:00;;;;;;;18.45;11.50;;;;;;;2.86;100.00;100335.31;5053066;28;20127;-69
2022/11/14 04:00:27;;;;;;;13.88;10.82;;;;;;;2.86;100.00;100337.94;5025429;28;20059;-69
2022/11/14 04:02:57;;;;;;;17.90;11.15;;;;;;;2.66;100.00;100302.53;5029453;28;20119;-71
2022/11/14 04:05:23;;;;;;;15.35;10.90;;;;;;;2.75;100.00;100335.50;5035917;28;20054;-70
2022/11/14 04:07:50;;;;;;;14.23;10.65;;;;;;;2.73;100.00;100329.44;5047193;28;20207;-71
2022/11/14 04:10:17;;;;;;;14.98;10.93;;;;;;;2.66;100.00;100333.91;5044231;28;20047;-71
2022/11/14 04:12:48;;;;;;;16.80;11.77;;;;;;;2.44;100.00;100291.56;5036178;28;20052;-73
2022/11/14 04:15:16;;;;;;;19.95;11.68;;;;;;;2.60;100.00;100323.53;5035983;28;20098;-71
2022/11/14 04:17:43;;;;;;;14.55;11.00;;;;;;;2.47;100.00;100301.97;5046967;28;20067;-69
2022/11/14 04:20:10;;;;;;;17.42;11.25;;;;;;;2.66;100.00;100333.03;5042925;28;20401;-72
2022/11/14 04:22:37;;;;;;;16.70;10.85;;;;;;;2.72;100.00;100325.09;5040659;28;20040;-72
2022/11/14 04:25:05;;;;;;;16.58;10.95;;;;;;;2.80;100.00;100321.47;5045406;28;20461;-71
2022/11/14 04:27:32;;;;;;;13.18;10.13;;;;;;;2.81;100.00;100317.09;5045847;28;20353;-71
2022/11/14 04:29:59;;;;;;;15.55;10.75;;;;;;;2.78;100.00;100317.16;5052625;28;20045;-71
2022/11/14 04:32:25;;;;;;;16.13;9.85;;;;;;;2.72;100.00;100302.41;5035100;28;20044;-71
2022/11/14 04:34:52;;;;;;;17.42;10.77;;;;;;;2.74;100.00;100305.00;5055669;28;20382;-70
2022/11/14 04:37:18;;;;;;;13.70;9.95;;;;;;;2.67;100.00;100311.25;5043338;28;20051;-70
2022/11/14 04:39:45;;;;;;;16.65;10.65;;;;;;;2.52;100.00;100288.78;5044088;28;20049;-71
2022/11/14 04:42:12;;;;;;;15.32;10.90;;;;;;;2.59;100.00;100315.72;5041382;28;20163;-70
2022/11/14 04:44:38;;;;;;;15.75;10.80;;;;;;;2.51;100.00;100308.00;5048251;28;20055;-69
2022/11/14 04:47:05;;;;;;;15.45;10.63;;;;;;;2.53;100.00;100306.22;5041574;28;20067;-72
2022/11/14 04:49:31;;;;;;;19.00;11.27;;;;;;;2.54;100.00;100307.94;5052474;28;20041;-71
2022/11/14 04:51:58;;;;;;;15.57;10.88;;;;;;;2.58;100.00;100324.44;5041605;28;20407;-69
2022/11/14 04:54:25;;;;;;;17.38;12.07;;;;;;;2.64;100.00;100314.75;5021103;28;20055;-71
2022/11/14 04:56:51;;;;;;;16.98;11.13;;;;;;;2.68;100.00;100311.19;5045709;28;20079;-72
2022/11/14 04:59:18;;;;;;;16.92;11.38;;;;;;;2.74;100.00;100325.94;5043970;28;20412;-70
2022/11/14 05:01:46;;;;;;;16.05;11.05;;;;;;;2.81;100.00;100310.13;5041136;28;20637;-69
2022/11/14 05:04:13;;;;;;;16.70;10.95;;;;;;;2.91;100.00;100316.06;5037924;28;20076;-71
2022/11/14 05:06:40;;;;;;;15.18;11.45;;;;;;;3.01;100.00;100324.59;5048950;28;20061;-71
2022/11/14 05:09:06;;;;;;;15.82;10.82;;;;;;;3.14;100.00;100313.91;5047507;28;20079;-70
2022/11/14 05:11:33;;;;;;;19.85;11.85;;;;;;;3.22;100.00;100307.66;5048780;28;20451;-69
2022/11/14 05:14:00;;;;;;;18.23;11.50;;;;;;;3.34;100.00;100302.19;5031354;28;20041;-71
2022/11/14 05:16:26;;;;;;;15.68;11.15;;;;;;;3.40;100.00;100302.94;5043097;28;20052;-69
2022/11/14 05:18:53;;;;;;;17.92;12.07;;;;;;;3.44;100.00;100296.78;5043210;28;20072;-72
2022/11/14 05:21:20;;;;;;;14.30;10.63;;;;;;;3.52;100.00;100305.31;5048434;28;20044;-72
2022/11/14 05:23:47;;;;;;;16.33;11.00;;;;;;;3.50;100.00;100294.00;5037453;28;20057;-71
2022/11/14 05:26:16;;;;;;;15.80;10.65;;;;;;;3.49;100.00;100302.75;5038341;28;20057;-71
2022/11/14 05:28:43;;;;;;;19.42;11.68;;;;;;;3.47;100.00;100291.44;5051696;28;20060;-71
2022/11/14 05:31:13;;;;;;;16.08;11.88;;;;;;;3.49;100.00;100288.81;5034903;28;20080;-70
2022/11/14 05:33:40;;;;;;;15.65;11.48;;;;;;;3.55;100.00;100295.69;5029752;28;20139;-71
2022/11/14 05:36:24;;;;;;;17.88;11.93;;;;;;;3.61;100.00;100291.19;5044878;28;20349;-70
2022/11/14 05:38:51;;;;;;;18.55;12.20;;;;;;;3.56;100.00;100274.72;5029335;28;20040;-72
2022/11/14 05:41:19;;;;;;;19.85;12.60;;;;;;;3.73;100.00;100298.78;5050640;28;20540;-71
2022/11/14 05:43:48;;;;;;;16.10;11.30;;;;;;;3.81;100.00;100301.25;5034763;28;20056;-71
2022/11/14 05:46:16;;;;;;;16.83;11.55;;;;;;;3.83;100.00;100287.22;5042959;28;20057;-70
2022/11/14 05:48:42;;;;;;;18.35;11.20;;;;;;;3.90;100.00;100302.81;5037712;28;20548;-71
2022/11/14 05:51:11;;;;;;;16.83;11.57;;;;;;;3.90;100.00;100298.44;5045392;28;20041;-71
2022/11/14 05:53:39;;;;;;;15.98;11.73;;;;;;;3.90;100.00;100289.72;5034313;28;20141;-73
2022/11/14 05:56:09;;;;;;;14.77;11.52;;;;;;;3.77;100.00;100266.41;5052109;28;20124;-69
2022/11/14 05:58:36;;;;;;;18.77;12.93;;;;;;;3.98;100.00;100299.13;5049093;28;20102;-72
2022/11/14 06:01:14;;;;;;;16.70;11.07;;;;;;;4.02;100.00;100303.41;5051127;28;20123;-69
2022/11/14 06:03:42;;;;;;;18.08;11.32;;;;;;;3.78;100.00;100257.63;5030657;28;20060;-70
2022/11/14 06:06:13;;;;;;;14.82;11.43;;;;;;;4.07;100.00;100293.72;5045167;28;20072;-71
2022/11/14 06:08:40;;;;;;;16.35;11.25;;;;;;;4.12;100.00;100298.81;5041043;28;20481;-70
2022/11/14 06:11:13;;;;;;;18.98;12.65;;;;;;;4.19;100.00;100308.28;5039320;28;20041;-71
2022/11/14 06:13:39;;;;;;;15.82;11.63;;;;;;;4.25;100.00;100299.44;5031651;28;20041;-70
2022/11/14 06:16:10;;;;;;;17.70;12.77;;;;;;;4.32;100.00;100306.25;5051330;28;20070;-71
2022/11/14 06:18:37;;;;;;;20.25;14.10;;;;;;;4.39;100.00;100303.47;5040841;28;20405;-72
2022/11/14 06:21:06;;;;;;;22.80;15.00;;;;;;;4.43;100.00;100293.75;5040696;28;20059;-72
2022/11/14 06:23:33;;;;;;;22.23;14.63;;;;;;;4.56;100.00;100306.53;5033386;28;20064;-70
2022/11/14 06:26:01;;;;;;;23.08;15.25;;;;;;;4.62;100.00;100297.66;5041969;28;20255;-70
2022/11/14 06:28:28;;;;;;;28.63;18.33;;;;;;;4.76;100.00;100298.16;5051502;28;20112;-70
2022/11/14 06:30:59;;;;;;;33.63;20.08;;;;;;;4.86;100.00;100297.06;5047487;28;20485;-72
2022/11/14 06:33:27;;;;;;;32.58;19.42;;;;;;;4.97;100.00;100303.78;5037801;28;20576;-70
2022/11/14 06:35:59;;;;;;;32.60;20.23;;;;;;;4.88;100.00;100278.63;5045506;28;20482;-71
2022/11/14 06:38:26;;;;;;;37.10;21.15;;;;;;;5.10;100.00;100316.56;5041789;28;20077;-72
2022/11/14 06:41:04;;;;;;;37.80;20.77;;;;;;;5.17;100.00;100309.41;5037958;28;20052;-68
2022/11/14 06:43:39;;;;;;;35.20;20.15;;;;;;;5.18;100.00;100306.72;5039490;28;20051;-69
2022/11/14 06:46:08;;;;;;;30.60;19.05;;;;;;;5.12;100.00;100277.16;5050077;28;20520;-71
2022/11/14 06:48:35;;;;;;;33.88;20.33;;;;;;;5.27;100.00;100266.22;5044542;28;20174;-71
2022/11/14 06:51:03;;;;;;;34.90;21.25;;;;;;;5.30;100.00;100268.78;5052641;28;20088;-71
2022/11/14 06:53:32;;;;;;;37.33;20.42;;;;;;;5.17;100.00;100246.41;5038898;28;20049;-70
2022/11/14 06:56:02;;;;;;;36.25;21.33;;;;;;;5.32;100.00;100266.13;5042353;28;20180;-71
2022/11/14 06:58:31;;;;;;;36.30;21.70;;;;;;;5.36;100.00;100268.59;5045911;28;20072;-72
2022/11/14 07:01:25;;;;;;;38.35;22.20;;;;;;;5.42;100.00;100289.44;5042002;28;20045;-69
2022/11/14 07:03:52;;;;;;;36.88;21.58;;;;;;;5.45;100.00;100293.75;5033159;28;20103;-70
2022/11/14 07:06:23;;;;;;;34.53;20.17;;;;;;;5.36;100.00;100265.97;5054074;28;20048;-71
2022/11/14 07:08:50;;;;;;;;;;;;;;;5.54;100.00;100290.84;5049711;28;20059;-71
2022/11/14 07:11:24;;;;;;;39.67;21.75;;;;;;;5.54;100.00;100278.59;5048387;28;19982;-73
2022/11/14 07:14:01;;;;;;;39.72;22.00;;;;;;;5.57;100.00;100289.00;5040499;28;20083;-71
2022/11/14 07:16:31;;;;;;;37.53;22.33;;;;;;;5.60;100.00;100283.69;5047095;28;20042;-71
2022/11/14 07:18:58;;;;;;;39.45;21.92;;;;;;;5.63;100.00;100274.84;5040657;28;20132;-70
2022/11/14 07:21:27;;;;;;;41.00;23.30;;;;;;;5.64;100.00;100282.69;5051379;28;20041;-72
2022/11/14 07:23:55;;;;;;;37.35;22.20;;;;;;;5.70;100.00;100293.91;5039257;28;20056;-71
2022/11/14 07:26:22;;;;;;;38.78;22.25;;;;;;;5.69;100.00;100293.03;5052350;28;20103;-71
2022/11/14 07:28:49;;;;;;;43.63;23.20;;;;;;;5.71;100.00;100296.50;5053686;28;20452;-73
2022/11/14 07:31:21;;;;;;;41.97;22.40;;;;;;;5.61;100.00;100284.53;5042706;28;20240;-70
2022/11/14 07:33:48;;;;;;;36.05;21.67;;;;;;;5.70;100.00;100292.16;5033845;28;20076;-70
2022/11/14 07:36:15;;;;;;;39.78;22.27;;;;;;;5.75;100.00;100303.41;5049884;28;20044;-72
2022/11/14 07:38:42;;;;;;;40.30;22.55;;;;;;;5.80;100.00;100313.78;5050647;28;20143;-71
2022/11/14 07:41:14;;;;;;;40.33;23.00;;;;;;;5.69;100.00;100303.56;5054151;28;20124;-69
2022/11/14 07:43:42;;;;;;;40.70;23.40;;;;;;;5.73;100.00;100294.69;5023079;28;20049;-69
2022/11/14 07:46:17;;;;;;;39.53;21.73;;;;;;;5.96;100.00;100313.31;5042603;28;20051;-72
2022/11/14 07:48:44;;;;;;;40.63;22.15;;;;;;;5.99;100.00;100312.34;5050569;28;20061;-71
2022/11/14 07:51:16;;;;;;;39.40;22.33;;;;;;;6.00;100.00;100308.81;5054505;28;20439;-69
2022/11/14 07:53:43;;;;;;;39.45;22.17;;;;;;;5.90;100.00;100308.22;5035074;28;20081;-71
2022/11/14 07:56:10;;;;;;;43.47;22.65;;;;;;;5.81;100.00;100287.47;5047396;28;20120;-70
2022/11/14 07:58:38;;;;;;;40.97;22.27;;;;;;;5.94;100.00;100307.25;5046443;28;20049;-71
2022/11/14 08:01:07;;;;;;;41.22;22.02;;;;;;;6.01;100.00;100301.78;5039225;28;20072;-70
2022/11/14 08:03:34;;;;;;;40.38;22.40;;;;;;;5.84;100.00;100268.94;5040948;28;20803;-70
2022/11/14 08:06:02;;;;;;;40.28;22.58;;;;;;;6.06;100.00;100300.75;5041431;28;20048;-69
2022/11/14 08:08:29;;;;;;;45.50;22.52;;;;;;;5.97;100.00;100269.50;5051162;28;20054;-72
2022/11/14 08:10:57;;;;;;;38.65;21.35;;;;;;;6.09;100.00;100292.78;5042853;28;20068;-71
2022/11/14 08:13:25;;;;;;;40.88;21.42;;;;;;;6.14;100.00;100303.16;5044431;28;20478;-70
2022/11/14 08:16:01;;;;;;;40.33;22.08;;;;;;;6.15;100.00;100308.34;5039391;28;20041;-71
2022/11/14 08:18:32;;;;;;;36.90;21.23;;;;;;;6.10;100.00;100296.28;5046947;28;20096;-71
2022/11/14 08:21:02;;;;;;;40.88;20.98;;;;;;;6.27;100.00;100317.66;5046793;28;20107;-70
2022/11/14 08:23:28;;;;;;;39.63;21.80;;;;;;;6.29;100.00;100315.84;5042345;28;20063;-70
2022/11/14 08:25:57;;;;;;;41.38;22.33;;;;;;;6.27;100.00;100317.66;5044339;28;20055;-70
2022/11/14 08:28:24;;;;;;;39.92;20.92;;;;;;;6.28;100.00;100309.72;5048738;28;20048;-70
2022/11/14 08:30:50;;;;;;;36.63;20.92;;;;;;;6.20;100.00;100290.69;5045677;28;20184;-70
2022/11/14 08:33:17;;;;;;;36.42;21.38;;;;;;;6.37;100.00;100313.81;5039457;28;20557;-71
2022/11/14 08:35:43;;;;;;;39.92;21.98;;;;;;;6.33;100.00;100309.56;5038811;28;20049;-70
2022/11/14 08:38:10;;;;;;;43.58;21.13;;;;;;;6.19;100.00;100286.31;5039228;28;20140;-73
2022/11/14 08:40:38;;;;;;;37.00;20.45;;;;;;;6.34;100.00;100309.53;5039304;28;20128;-69
2022/11/14 08:43:05;;;;;;;40.55;21.85;;;;;;;6.38;100.00;100319.94;5037651;28;20054;-71
2022/11/14 08:45:31;;;;;;;38.25;21.15;;;;;;;6.33;100.00;100312.19;5033104;28;20129;-70
2022/11/14 08:47:58;;;;;;;36.85;21.55;;;;;;;6.38;100.00;100319.94;5036854;28;20036;-71
2022/11/14 08:50:25;;;;;;;36.17;20.48;;;;;;;6.39;100.00;100317.28;5046687;28;20246;-70
2022/11/14 08:52:51;;;;;;;41.75;21.27;;;;;;;6.43;100.00;100316.28;5034245;28;20421;-69
2022/11/14 08:55:19;;;;;;;39.95;21.58;;;;;;;6.42;100.00;100300.53;5035634;28;20144;-71
2022/11/14 08:57:46;;;;;;;39.75;21.65;;;;;;;6.45;100.00;100311.84;5052219;28;20044;-71
2022/11/14 09:00:16;;;;;;;35.38;20.13;;;;;;;6.53;100.00;100316.84;5036670;28;20132;-70
2022/11/14 09:02:42;;;;;;;41.42;20.95;;;;;;;6.59;100.00;100325.41;5044716;28;20045;-71
2022/11/14 09:05:09;;;;;;;38.60;20.30;;;;;;;6.63;100.00;100323.53;5032153;28;20063;-68
2022/11/14 09:07:36;;;;;;;39.00;20.92;;;;;;;6.64;100.00;100336.63;5043079;28;20716;-71
2022/11/14 09:10:04;;;;;;;34.83;19.35;;;;;;;6.60;100.00;100329.78;5039500;28;20044;-69
2022/11/14 09:12:30;;;;;;;37.90;19.92;;;;;;;6.68;100.00;100343.53;5037595;28;20051;-71
2022/11/14 09:14:57;;;;;;;37.40;20.27;;;;;;;6.64;100.00;100344.53;5025320;28;20056;-71
2022/11/14 09:17:23;;;;;;;32.08;19.48;;;;;;;6.64;100.00;100339.25;5029540;28;20044;-74
2022/11/14 09:19:50;;;;;;;34.38;20.20;;;;;;;6.54;100.00;100306.28;5038475;28;20049;-70
2022/11/14 09:22:17;;;;;;;35.67;19.90;;;;;;;6.67;100.00;100336.53;5037284;28;20057;-71
2022/11/14 09:24:46;;;;;;;35.60;19.27;;;;;;;6.76;100.00;100329.28;5028503;28;20072;-71
2022/11/14 09:40:54;;;;;;;26.88;18.25;;;;;;;7.40;100.00;100318.25;5122858;27;20178;-70
2022/11/14 09:43:26;;;;;;;28.60;16.83;;;;;;;7.46;100.00;100301.38;5116563;28;20146;-71
2022/11/14 09:45:53;;;;;;;25.20;16.77;;;;;;;7.43;100.00;100290.09;5116981;27;20483;-72
2022/11/14 09:48:26;;;;;;;26.20;16.90;;;;;;;7.51;100.00;100302.09;5116216;27;20044;-71
2022/11/14 09:51:22;;;;;;;26.52;16.70;;;;;;;7.59;100.00;100314.97;5110852;28;20490;-70
2022/11/14 09:53:54;;;;;;;27.02;16.58;;;;;;;7.62;100.00;100307.81;5116855;28;20046;-71
2022/11/14 09:56:24;;;;;;;22.95;15.20;;;;;;;7.53;100.00;100284.47;5116177;28;20053;-72
2022/11/14 09:58:53;;;;;;;28.30;16.98;;;;;;;7.66;100.00;100291.00;5115606;27;20082;-72
2022/11/14 10:01:58;;;;;;;26.33;16.30;;;;;;;7.67;100.00;100278.69;5113655;28;20147;-71
2022/11/14 10:04:53;;;;;;;25.23;16.27;;;;;;;7.77;100.00;100253.69;5118066;28;20047;-71
2022/11/14 10:07:25;;;;;;;29.00;16.33;;;;;;;8.15;100.00;100275.09;5115372;27;20137;-71
2022/11/14 10:10:13;;;;;;;25.08;15.48;;;;;;;8.27;100.00;100274.63;5114687;27;20142;-72
2022/11/14 10:13:16;;;;;;;24.38;14.95;;;;;;;8.29;100.00;100270.16;5112022;28;20040;-74
2022/11/14 10:15:53;;;;;;;24.92;14.57;;;;;;;8.12;100.00;100248.84;5108638;28;20067;-71
2022/11/14 10:18:51;;;;;;;23.85;14.93;;;;;;;8.30;100.00;100267.44;5116441;28;20054;-72
2022/11/14 10:21:45;;;;;;;23.83;14.75;;;;;;;8.32;100.00;100254.22;5101608;28;20104;-72
2022/11/14 10:24:44;;;;;;;24.42;14.45;;;;;;;8.36;100.00;100256.66;5116816;28;20545;-71
2022/11/14 10:27:22;;;;;;;22.08;14.38;;;;;;;8.55;100.00;100271.75;5111417;27;20682;-70
2022/11/14 10:30:17;;;;;;;21.00;13.77;;;;;;;8.52;100.00;100229.66;5112925;28;20492;-71
2022/11/14 10:32:44;;;;;;;21.05;14.02;;;;;;;8.67;100.00;100244.84;5114904;28;20043;-72
2022/11/14 10:35:18;;;;;;;21.10;13.55;;;;;;;8.73;100.00;100250.75;5117054;27;20063;-72
2022/11/14 10:38:06;;;;;;;19.92;13.27;;;;;;;8.85;100.00;100251.16;5117544;28;20055;-72
2022/11/14 10:40:39;;;;;;;19.42;13.52;;;;;;;8.92;100.00;100255.25;5104314;28;20052;-72
2022/11/14 10:43:14;;;;;;;22.95;13.88;;;;;;;8.97;100.00;100248.84;5103524;28;20055;-71
2022/11/14 10:45:49;;;;;;;20.80;13.40;;;;;;;8.99;100.00;100248.78;5100662;28;20120;-71
2022/11/14 10:48:27;;;;;;;22.08;14.18;;;;;;;8.95;100.00;100253.38;5105137;28;20050;-71
2022/11/14 10:50:56;;;;;;;20.70;13.02;;;;;;;8.96;100.00;100233.94;5099713;28;20637;-73
2022/11/14 10:53:32;;;;;;;21.90;13.85;;;;;;;9.04;100.00;100234.47;5097356;28;20051;-70
2022/11/14 10:55:58;;;;;;;20.38;13.63;;;;;;;9.06;100.00;100237.03;5091468;28;20139;-71
2022/11/14 10:58:30;;;;;;;22.92;14.05;;;;;;;9.02;100.00;100235.44;5101055;28;20116;-71
2022/11/14 11:01:36;;;;;;;21.48;13.57;;;;;;;9.05;100.00;100225.63;5094167;28;20047;-70
2022/11/14 11:04:35;;;;;;;20.10;13.75;;;;;;;9.14;100.00;100219.06;5089449;28;20586;-72
2022/11/14 11:07:07;;;;;;;18.40;12.70;;;;;;;9.20;100.00;100213.53;5097769;28;20048;-71
2022/11/14 11:12:42;;;;;;;21.40;14.03;;;;;;;9.38;100.00;100212.72;5098836;28;20123;-72
2022/11/14 11:15:17;;;;;;;18.30;12.30;;;;;;;9.43;100.00;100213.38;5100434;28;21052;-73
2022/11/14 11:18:00;;;;;;;19.73;12.98;;;;;;;9.53;100.00;100211.16;5101718;28;20517;-72
2022/11/14 11:20:26;;;;;;;20.02;13.07;;;;;;;9.60;100.00;100202.00;5100897;28;20073;-70
2022/11/14 11:23:09;;;;;;;21.38;12.75;;;;;;;9.70;100.00;100195.38;5097376;28;20082;-70
2022/11/14 11:25:38;;;;;;;19.08;12.75;;;;;;;9.54;99.86;100180.28;5095684;28;20067;-71
2022/11/14 11:28:17;;;;;;;19.52;12.48;;;;;;;9.62;100.00;100194.84;5105005;28;20078;-72
2022/11/14 11:31:01;;;;;;;19.17;12.43;;;;;;;9.63;100.00;100187.78;5101882;28;20044;-72
2022/11/14 11:33:34;;;;;;;19.15;12.00;;;;;;;9.70;100.00;100189.22;5106030;28;20147;-70
2022/11/14 11:36:05;;;;;;;19.45;12.38;;;;;;;9.73;100.00;100178.50;5098726;28;20122;-71
2022/11/14 11:38:33;;;;;;;20.65;12.52;;;;;;;9.69;100.00;100185.72;5100272;28;20050;-71